| Date | Time | Temp. (oF) | Dew Point (oF) | Rel. Hum. (%) | Press. (in.) | Wind Dir. | Wind Speed (mph) | Hourly Rainfall (in.) |
|
|---|---|---|---|---|---|---|---|---|---|
| 1 | 03/29 | 00:00 | 25 | 6 | 44 | 30.21 | NNE | 9 | 0.00 |
| 2 | 03/28 | 23:00 | 27 | 6 | 42 | 30.19 | NE | 11 | 0.00 |
| 3 | 03/28 | 22:00 | 28 | 10 | 48 | 30.16 | N | 6 | 0.00 |
| 4 | 03/28 | 21:00 | 28 | 17 | 63 | 30.12 | N | 4 | 0.00 |
| 5 | 03/28 | 20:00 | 28 | 17 | 63 | 30.08 | W | 7 | 0.00 |
| 6 | 03/28 | 19:00 | 28 | 19 | 69 | 30.04 | N | 4 | 0.00 |
| 7 | 03/28 | 18:00 | 29 | 19 | 68 | 30.00 | NNW | 17 | 0.00 |
| 8 | 03/28 | 17:00 | 31 | 19 | 62 | 29.97 | NNW | 14 | 0.00 |
| 9 | 03/28 | 16:00 | 33 | 13 | 45 | 29.95 | N | 12 | 0.00 |
| 10 | 03/28 | 15:00 | 32 | 13 | 46 | 29.95 | WNW | 9 | 0.00 |
| 11 | 03/28 | 14:00 | 32 | 16 | 53 | 29.94 | N | 17 | 0.00 |
| 12 | 03/28 | 13:00 | 31 | 16 | 55 | 29.94 | WNW | 8 | 0.00 |
| 13 | 03/28 | 12:00 | 31 | 16 | 54 | 29.94 | N | 14 | 0.00 |
| 14 | 03/28 | 11:00 | 28 | 18 | 67 | 29.94 | N | 12 | 0.00 |
| 15 | 03/28 | 10:00 | 27 | 24 | 90 | 29.94 | N | 4 | 0.00 |
| 16 | 03/28 | 09:00 | 26 | 24 | 93 | 29.92 | W | 9 | 0.00 |
| 17 | 03/28 | 08:00 | 27 | 25 | 93 | 29.90 | N | 5 | 0.00 |
| 18 | 03/28 | 07:00 | 29 | 26 | 90 | 29.86 | WNW | 9 | 0.00 |
| 19 | 03/28 | 06:00 | 31 | 27 | 85 | 29.84 | WNW | 10 | 0.00 |
| 20 | 03/28 | 05:00 | 31 | 28 | 90 | 29.83 | WNW | 7 | 0.00 |
| 21 | 03/28 | 04:00 | 33 | 28 | 82 | 29.83 | N | 6 | 0.00 |
| 22 | 03/28 | 03:00 | 34 | 22 | 62 | 29.82 | W | 6 | 0.00 |
| 23 | 03/28 | 02:00 | 35 | 23 | 63 | 29.82 | W | 5 | 0.00 |
| 24 | 03/28 | 01:00 | 36 | 24 | 63 | 29.82 | N | 8 | 0.00 |